sensor_id;sensor_type;location;lat;lon;timestamp;temperature;humidity
2543;DHT22;1116;51.502;7.414;2022-08-11T17:36:49;30.20;1.00
2543;DHT22;1116;51.502;7.414;2022-08-11T17:39:29;29.90;1.00
2543;DHT22;1116;51.502;7.414;2022-08-11T17:42:03;29.80;1.00
2543;DHT22;1116;51.502;7.414;2022-08-11T17:44:52;29.90;1.00
2543;DHT22;1116;51.502;7.414;2022-08-11T17:47:44;30.00;1.00
2543;DHT22;1116;51.502;7.414;2022-08-11T17:50:53;29.90;1.00
2543;DHT22;1116;51.502;7.414;2022-08-11T17:53:33;29.90;1.00
2543;DHT22;1116;51.502;7.414;2022-08-11T17:56:50;29.90;1.00
2543;DHT22;1116;51.502;7.414;2022-08-11T17:59:50;29.90;1.00
2543;DHT22;1116;51.502;7.414;2022-08-11T18:02:24;29.80;1.00
2543;DHT22;1116;51.502;7.414;2022-08-11T18:05:16;29.60;1.00
2543;DHT22;1116;51.502;7.414;2022-08-11T18:07:52;29.70;1.00
2543;DHT22;1116;51.502;7.414;2022-08-11T18:10:46;29.60;1.00
2543;DHT22;1116;51.502;7.414;2022-08-11T18:13:36;29.50;1.00
2543;DHT22;1116;51.502;7.414;2022-08-11T18:16:32;29.40;1.00
2543;DHT22;1116;51.502;7.414;2022-08-11T18:19:26;29.10;1.00
2543;DHT22;1116;51.502;7.414;2022-08-11T18:22:21;29.10;1.00
2543;DHT22;1116;51.502;7.414;2022-08-11T18:25:19;29.10;1.00
2543;DHT22;1116;51.502;7.414;2022-08-11T18:28:26;29.10;1.00
2543;DHT22;1116;51.502;7.414;2022-08-11T18:31:27;28.90;1.00
2543;DHT22;1116;51.502;7.414;2022-08-11T18:34:24;28.90;1.00
2543;DHT22;1116;51.502;7.414;2022-08-11T18:37:19;28.70;1.00
2543;DHT22;1116;51.502;7.414;2022-08-11T18:40:23;28.70;1.00
2543;DHT22;1116;51.502;7.414;2022-08-11T18:43:24;28.60;1.00
2543;DHT22;1116;51.502;7.414;2022-08-11T18:46:22;28.50;1.00
2543;DHT22;1116;51.502;7.414;2022-08-11T18:49:18;28.40;1.00
2543;DHT22;1116;51.502;7.414;2022-08-11T18:52:30;28.30;1.00
2543;DHT22;1116;51.502;7.414;2022-08-11T18:55:21;28.30;1.00
2543;DHT22;1116;51.502;7.414;2022-08-11T18:58:20;28.10;1.00
2543;DHT22;1116;51.502;7.414;2022-08-11T19:01:15;28.00;1.00
2543;DHT22;1116;51.502;7.414;2022-08-11T19:04:10;28.00;1.00
2543;DHT22;1116;51.502;7.414;2022-08-11T19:07:16;27.80;1.00
2543;DHT22;1116;51.502;7.414;2022-08-11T19:10:06;27.60;1.00
2543;DHT22;1116;51.502;7.414;2022-08-11T19:13:01;27.50;1.00
2543;DHT22;1116;51.502;7.414;2022-08-11T19:15:49;27.40;1.00
2543;DHT22;1116;51.502;7.414;2022-08-11T19:18:49;27.50;1.00
2543;DHT22;1116;51.502;7.414;2022-08-11T19:21:56;27.30;1.00
2543;DHT22;1116;51.502;7.414;2022-08-11T19:24:47;27.20;1.00
2543;DHT22;1116;51.502;7.414;2022-08-11T19:27:40;27.10;1.00
2543;DHT22;1116;51.502;7.414;2022-08-11T19:30:33;26.90;1.00
2543;DHT22;1116;51.502;7.414;2022-08-11T19:33:22;26.80;1.00
2543;DHT22;1116;51.502;7.414;2022-08-11T19:36:38;26.70;1.00
2543;DHT22;1116;51.502;7.414;2022-08-11T19:39:35;26.40;1.00
2543;DHT22;1116;51.502;7.414;2022-08-11T19:42:27;26.30;1.00
2543;DHT22;1116;51.502;7.414;2022-08-11T19:45:26;26.30;1.00
2543;DHT22;1116;51.502;7.414;2022-08-11T19:48:44;26.30;1.00
2543;DHT22;1116;51.502;7.414;2022-08-11T19:51:36;26.10;1.00
2543;DHT22;1116;51.502;7.414;2022-08-11T19:54:29;25.90;1.00
2543;DHT22;1116;51.502;7.414;2022-08-11T19:57:24;25.20;1.00
2543;DHT22;1116;51.502;7.414;2022-08-11T20:00:13;25.90;1.00
2543;DHT22;1116;51.502;7.414;2022-08-11T20:03:03;25.70;1.00
2543;DHT22;1116;51.502;7.414;2022-08-11T20:05:51;25.70;1.00
2543;DHT22;1116;51.502;7.414;2022-08-11T20:08:43;25.60;1.00
2543;DHT22;1116;51.502;7.414;2022-08-11T20:11:43;25.50;1.00
2543;DHT22;1116;51.502;7.414;2022-08-11T20:14:33;25.30;1.00
2543;DHT22;1116;51.502;7.414;2022-08-11T20:17:26;25.20;1.00
2543;DHT22;1116;51.502;7.414;2022-08-11T20:20:18;25.10;1.00
2543;DHT22;1116;51.502;7.414;2022-08-11T20:23:11;25.00;1.00
2543;DHT22;1116;51.502;7.414;2022-08-11T20:26:06;25.00;1.00
2543;DHT22;1116;51.502;7.414;2022-08-11T20:29:01;24.90;1.00
2543;DHT22;1116;51.502;7.414;2022-08-11T20:31:53;25.00;1.00
2543;DHT22;1116;51.502;7.414;2022-08-11T20:34:41;24.80;1.00
2543;DHT22;1116;51.502;7.414;2022-08-11T20:37:33;24.70;1.00
2543;DHT22;1116;51.502;7.414;2022-08-11T20:40:29;24.50;1.00
2543;DHT22;1116;51.502;7.414;2022-08-11T20:43:32;24.40;1.00
2543;DHT22;1116;51.502;7.414;2022-08-11T20:46:45;24.30;1.00
2543;DHT22;1116;51.502;7.414;2022-08-11T20:49:46;24.20;1.00
2543;DHT22;1116;51.502;7.414;2022-08-11T20:52:52;24.10;1.00
2543;DHT22;1116;51.502;7.414;2022-08-11T20:55:44;24.20;1.00
2543;DHT22;1116;51.502;7.414;2022-08-11T20:58:55;24.00;1.00
2543;DHT22;1116;51.502;7.414;2022-08-11T21:01:51;23.90;1.00
2543;DHT22;1116;51.502;7.414;2022-08-11T21:04:40;23.90;1.00
2543;DHT22;1116;51.502;7.414;2022-08-11T21:07:40;23.90;1.00
2543;DHT22;1116;51.502;7.414;2022-08-11T21:10:31;23.60;1.00
2543;DHT22;1116;51.502;7.414;2022-08-11T21:13:25;23.50;1.00
2543;DHT22;1116;51.502;7.414;2022-08-11T21:16:31;23.30;1.00
2543;DHT22;1116;51.502;7.414;2022-08-11T21:19:24;23.30;1.00
2543;DHT22;1116;51.502;7.414;2022-08-11T21:22:35;23.20;1.00
2543;DHT22;1116;51.502;7.414;2022-08-11T21:25:36;23.10;1.00
2543;DHT22;1116;51.502;7.414;2022-08-11T21:28:27;23.20;1.00
2543;DHT22;1116;51.502;7.414;2022-08-11T21:31:17;23.30;1.00
2543;DHT22;1116;51.502;7.414;2022-08-11T21:34:05;23.00;1.00
2543;DHT22;1116;51.502;7.414;2022-08-11T21:36:53;23.00;1.00
2543;DHT22;1116;51.502;7.414;2022-08-11T21:39:41;22.90;1.00
2543;DHT22;1116;51.502;7.414;2022-08-11T21:42:32;22.70;1.00
2543;DHT22;1116;51.502;7.414;2022-08-11T21:45:19;23.10;1.00
2543;DHT22;1116;51.502;7.414;2022-08-11T21:48:09;22.60;1.00
2543;DHT22;1116;51.502;7.414;2022-08-11T21:50:57;22.80;1.00
2543;DHT22;1116;51.502;7.414;2022-08-11T21:53:45;22.60;1.00
2543;DHT22;1116;51.502;7.414;2022-08-11T21:56:32;22.40;1.00
2543;DHT22;1116;51.502;7.414;2022-08-11T21:59:22;22.80;1.00
2543;DHT22;1116;51.502;7.414;2022-08-11T22:02:13;22.30;1.00
2543;DHT22;1116;51.502;7.414;2022-08-11T22:05:01;22.30;1.00
2543;DHT22;1116;51.502;7.414;2022-08-11T22:07:47;22.20;1.00
2543;DHT22;1116;51.502;7.414;2022-08-11T22:10:34;22.10;1.00
2543;DHT22;1116;51.502;7.414;2022-08-11T22:13:20;22.20;1.00
2543;DHT22;1116;51.502;7.414;2022-08-11T22:16:26;22.10;1.00
2543;DHT22;1116;51.502;7.414;2022-08-11T22:19:13;22.20;1.00
2543;DHT22;1116;51.502;7.414;2022-08-11T22:22:03;21.90;1.00
2543;DHT22;1116;51.502;7.414;2022-08-11T22:24:53;21.80;1.00
2543;DHT22;1116;51.502;7.414;2022-08-11T22:27:45;22.00;1.00
2543;DHT22;1116;51.502;7.414;2022-08-11T22:30:33;21.70;1.00
2543;DHT22;1116;51.502;7.414;2022-08-11T22:33:20;21.60;1.00
2543;DHT22;1116;51.502;7.414;2022-08-11T22:36:28;21.50;1.00
2543;DHT22;1116;51.502;7.414;2022-08-11T22:39:16;21.50;1.00
2543;DHT22;1116;51.502;7.414;2022-08-11T22:42:04;21.50;1.00
2543;DHT22;1116;51.502;7.414;2022-08-11T22:45:01;21.30;1.00
2543;DHT22;1116;51.502;7.414;2022-08-11T22:47:50;21.10;1.00
2543;DHT22;1116;51.502;7.414;2022-08-11T22:50:38;21.30;1.00
2543;DHT22;1116;51.502;7.414;2022-08-11T22:53:26;21.10;1.00
2543;DHT22;1116;51.502;7.414;2022-08-11T22:56:27;21.20;1.00
2543;DHT22;1116;51.502;7.414;2022-08-11T22:59:16;21.00;1.00
2543;DHT22;1116;51.502;7.414;2022-08-11T23:02:06;20.90;1.00
2543;DHT22;1116;51.502;7.414;2022-08-11T23:05:17;20.90;1.00
2543;DHT22;1116;51.502;7.414;2022-08-11T23:08:04;21.30;1.00
2543;DHT22;1116;51.502;7.414;2022-08-11T23:10:51;21.00;1.00
2543;DHT22;1116;51.502;7.414;2022-08-11T23:13:40;21.00;1.00
2543;DHT22;1116;51.502;7.414;2022-08-11T23:16:30;20.70;1.00
2543;DHT22;1116;51.502;7.414;2022-08-11T23:19:16;20.80;1.00
2543;DHT22;1116;51.502;7.414;2022-08-11T23:22:26;20.70;1.00
2543;DHT22;1116;51.502;7.414;2022-08-11T23:25:17;20.80;1.00
2543;DHT22;1116;51.502;7.414;2022-08-11T23:28:05;20.60;1.00
2543;DHT22;1116;51.502;7.414;2022-08-11T23:30:55;20.50;1.00
2543;DHT22;1116;51.502;7.414;2022-08-11T23:33:45;20.70;1.00
2543;DHT22;1116;51.502;7.414;2022-08-11T23:36:32;20.70;1.00
2543;DHT22;1116;51.502;7.414;2022-08-11T23:39:18;20.90;1.00
2543;DHT22;1116;51.502;7.414;2022-08-11T23:42:05;20.70;1.00
2543;DHT22;1116;51.502;7.414;2022-08-11T23:44:55;20.60;1.00
2543;DHT22;1116;51.502;7.414;2022-08-11T23:47:48;20.50;1.00
2543;DHT22;1116;51.502;7.414;2022-08-11T23:50:39;20.70;1.00
2543;DHT22;1116;51.502;7.414;2022-08-11T23:53:26;20.80;1.00
2543;DHT22;1116;51.502;7.414;2022-08-11T23:56:13;20.90;1.00
2543;DHT22;1116;51.502;7.414;2022-08-11T23:59:01;20.40;1.00
